sensor_id;sensor_type;location;lat;lon;timestamp;P1;durP1;ratioP1;P2;durP2;ratioP2
59880;SDS011;45751;51.380;10.326;2023-08-08T00:00:35;5.22;;;1.48;;
59880;SDS011;45751;51.380;10.326;2023-08-08T00:03:02;6.40;;;1.95;;
59880;SDS011;45751;51.380;10.326;2023-08-08T00:05:29;4.80;;;1.23;;
59880;SDS011;45751;51.380;10.326;2023-08-08T00:07:56;7.30;;;1.65;;
59880;SDS011;45751;51.380;10.326;2023-08-08T00:10:23;6.05;;;1.67;;
59880;SDS011;45751;51.380;10.326;2023-08-08T00:12:49;6.18;;;1.58;;
59880;SDS011;45751;51.380;10.326;2023-08-08T00:15:16;5.20;;;1.50;;
59880;SDS011;45751;51.380;10.326;2023-08-08T00:17:43;5.70;;;1.50;;
59880;SDS011;45751;51.380;10.326;2023-08-08T00:20:11;6.93;;;1.75;;
59880;SDS011;45751;51.380;10.326;2023-08-08T00:22:38;5.97;;;1.67;;
59880;SDS011;45751;51.380;10.326;2023-08-08T00:25:05;7.20;;;1.95;;
59880;SDS011;45751;51.380;10.326;2023-08-08T00:27:32;7.50;;;1.60;;
59880;SDS011;45751;51.380;10.326;2023-08-08T00:29:59;4.72;;;1.13;;
59880;SDS011;45751;51.380;10.326;2023-08-08T00:32:27;4.85;;;1.30;;
59880;SDS011;45751;51.380;10.326;2023-08-08T00:34:54;6.13;;;1.58;;
59880;SDS011;45751;51.380;10.326;2023-08-08T00:37:21;5.43;;;1.50;;
59880;SDS011;45751;51.380;10.326;2023-08-08T00:39:48;5.32;;;1.45;;
59880;SDS011;45751;51.380;10.326;2023-08-08T00:42:15;6.30;;;1.83;;
59880;SDS011;45751;51.380;10.326;2023-08-08T00:44:42;5.10;;;1.50;;
59880;SDS011;45751;51.380;10.326;2023-08-08T00:47:09;5.50;;;1.60;;
59880;SDS011;45751;51.380;10.326;2023-08-08T00:49:36;5.35;;;1.42;;
59880;SDS011;45751;51.380;10.326;2023-08-08T00:52:04;4.93;;;1.40;;
59880;SDS011;45751;51.380;10.326;2023-08-08T00:54:35;6.53;;;1.73;;
59880;SDS011;45751;51.380;10.326;2023-08-08T00:57:01;6.38;;;1.73;;
59880;SDS011;45751;51.380;10.326;2023-08-08T00:59:29;6.90;;;1.55;;
59880;SDS011;45751;51.380;10.326;2023-08-08T01:01:57;6.97;;;1.65;;
59880;SDS011;45751;51.380;10.326;2023-08-08T01:04:27;7.45;;;1.55;;
59880;SDS011;45751;51.380;10.326;2023-08-08T01:09:44;6.72;;;1.65;;
59880;SDS011;45751;51.380;10.326;2023-08-08T01:12:15;6.47;;;1.73;;
59880;SDS011;45751;51.380;10.326;2023-08-08T01:14:42;5.20;;;1.45;;
59880;SDS011;45751;51.380;10.326;2023-08-08T01:17:10;6.28;;;1.60;;
59880;SDS011;45751;51.380;10.326;2023-08-08T01:19:39;5.10;;;1.60;;
59880;SDS011;45751;51.380;10.326;2023-08-08T01:22:07;5.72;;;1.73;;
59880;SDS011;45751;51.380;10.326;2023-08-08T01:24:38;4.97;;;1.38;;
59880;SDS011;45751;51.380;10.326;2023-08-08T01:27:06;5.95;;;1.45;;
59880;SDS011;45751;51.380;10.326;2023-08-08T01:29:33;7.88;;;1.88;;
59880;SDS011;45751;51.380;10.326;2023-08-08T01:32:00;5.53;;;1.42;;
59880;SDS011;45751;51.380;10.326;2023-08-08T01:34:28;7.22;;;1.65;;
59880;SDS011;45751;51.380;10.326;2023-08-08T01:36:56;6.70;;;1.83;;
59880;SDS011;45751;51.380;10.326;2023-08-08T01:39:29;7.18;;;2.13;;
59880;SDS011;45751;51.380;10.326;2023-08-08T01:41:58;6.28;;;1.60;;
59880;SDS011;45751;51.380;10.326;2023-08-08T01:44:27;6.70;;;1.90;;
59880;SDS011;45751;51.380;10.326;2023-08-08T01:46:55;11.13;;;1.98;;
59880;SDS011;45751;51.380;10.326;2023-08-08T01:49:22;6.10;;;1.77;;
59880;SDS011;45751;51.380;10.326;2023-08-08T01:51:49;6.07;;;1.40;;
59880;SDS011;45751;51.380;10.326;2023-08-08T01:54:17;6.45;;;1.60;;
59880;SDS011;45751;51.380;10.326;2023-08-08T01:56:44;8.65;;;2.00;;
59880;SDS011;45751;51.380;10.326;2023-08-08T01:59:11;6.20;;;1.60;;
59880;SDS011;45751;51.380;10.326;2023-08-08T02:01:41;5.93;;;1.70;;
59880;SDS011;45751;51.380;10.326;2023-08-08T02:04:08;7.38;;;2.20;;
59880;SDS011;45751;51.380;10.326;2023-08-08T02:06:36;6.90;;;2.10;;
59880;SDS011;45751;51.380;10.326;2023-08-08T02:09:03;8.45;;;2.25;;
59880;SDS011;45751;51.380;10.326;2023-08-08T02:11:30;5.53;;;1.60;;
59880;SDS011;45751;51.380;10.326;2023-08-08T02:13:57;5.20;;;1.23;;
59880;SDS011;45751;51.380;10.326;2023-08-08T02:16:24;5.85;;;1.63;;
59880;SDS011;45751;51.380;10.326;2023-08-08T02:18:52;5.47;;;1.55;;
59880;SDS011;45751;51.380;10.326;2023-08-08T02:21:19;5.55;;;1.30;;
59880;SDS011;45751;51.380;10.326;2023-08-08T02:23:47;5.97;;;1.35;;
59880;SDS011;45751;51.380;10.326;2023-08-08T02:26:14;7.22;;;1.65;;
59880;SDS011;45751;51.380;10.326;2023-08-08T02:28:41;6.85;;;1.83;;
59880;SDS011;45751;51.380;10.326;2023-08-08T02:31:09;5.90;;;1.73;;
59880;SDS011;45751;51.380;10.326;2023-08-08T02:33:36;6.10;;;1.92;;
59880;SDS011;45751;51.380;10.326;2023-08-08T02:36:03;7.03;;;2.13;;
59880;SDS011;45751;51.380;10.326;2023-08-08T02:38:30;5.63;;;1.38;;
59880;SDS011;45751;51.380;10.326;2023-08-08T02:40:57;5.30;;;1.75;;
59880;SDS011;45751;51.380;10.326;2023-08-08T02:43:24;5.55;;;1.80;;
59880;SDS011;45751;51.380;10.326;2023-08-08T02:45:51;5.88;;;1.70;;
59880;SDS011;45751;51.380;10.326;2023-08-08T02:48:18;5.95;;;1.75;;
59880;SDS011;45751;51.380;10.326;2023-08-08T02:50:45;7.32;;;1.90;;
59880;SDS011;45751;51.380;10.326;2023-08-08T02:53:12;6.65;;;1.55;;
59880;SDS011;45751;51.380;10.326;2023-08-08T02:55:43;5.10;;;1.60;;
59880;SDS011;45751;51.380;10.326;2023-08-08T02:58:11;5.85;;;1.50;;
59880;SDS011;45751;51.380;10.326;2023-08-08T03:00:38;6.15;;;1.90;;
59880;SDS011;45751;51.380;10.326;2023-08-08T03:03:09;6.35;;;1.52;;
59880;SDS011;45751;51.380;10.326;2023-08-08T03:05:36;7.80;;;1.60;;
59880;SDS011;45751;51.380;10.326;2023-08-08T03:08:03;6.47;;;1.58;;
59880;SDS011;45751;51.380;10.326;2023-08-08T03:10:31;6.78;;;1.95;;
59880;SDS011;45751;51.380;10.326;2023-08-08T03:12:58;7.53;;;2.05;;
59880;SDS011;45751;51.380;10.326;2023-08-08T03:15:26;5.68;;;1.60;;
59880;SDS011;45751;51.380;10.326;2023-08-08T03:17:53;5.85;;;1.73;;
59880;SDS011;45751;51.380;10.326;2023-08-08T03:20:22;5.65;;;1.48;;
59880;SDS011;45751;51.380;10.326;2023-08-08T03:22:49;5.00;;;1.48;;
59880;SDS011;45751;51.380;10.326;2023-08-08T03:25:16;6.43;;;1.80;;
59880;SDS011;45751;51.380;10.326;2023-08-08T03:27:43;5.28;;;1.70;;
59880;SDS011;45751;51.380;10.326;2023-08-08T03:30:13;6.70;;;1.70;;
59880;SDS011;45751;51.380;10.326;2023-08-08T03:32:42;5.85;;;1.42;;
59880;SDS011;45751;51.380;10.326;2023-08-08T03:35:09;5.20;;;1.23;;
59880;SDS011;45751;51.380;10.326;2023-08-08T03:37:38;4.85;;;1.75;;
59880;SDS011;45751;51.380;10.326;2023-08-08T03:40:06;5.97;;;1.42;;
59880;SDS011;45751;51.380;10.326;2023-08-08T03:42:34;5.50;;;1.60;;
59880;SDS011;45751;51.380;10.326;2023-08-08T03:45:01;5.22;;;1.40;;
59880;SDS011;45751;51.380;10.326;2023-08-08T03:47:28;6.43;;;1.73;;
59880;SDS011;45751;51.380;10.326;2023-08-08T03:49:55;5.40;;;1.40;;
59880;SDS011;45751;51.380;10.326;2023-08-08T03:52:25;5.15;;;1.33;;
59880;SDS011;45751;51.380;10.326;2023-08-08T03:54:52;7.57;;;1.52;;
59880;SDS011;45751;51.380;10.326;2023-08-08T03:57:21;6.65;;;1.40;;
59880;SDS011;45751;51.380;10.326;2023-08-08T03:59:48;5.05;;;1.52;;
59880;SDS011;45751;51.380;10.326;2023-08-08T04:02:14;5.15;;;1.35;;
59880;SDS011;45751;51.380;10.326;2023-08-08T04:04:41;6.20;;;2.03;;
59880;SDS011;45751;51.380;10.326;2023-08-08T04:07:08;5.90;;;1.40;;
59880;SDS011;45751;51.380;10.326;2023-08-08T04:09:35;5.55;;;1.50;;
59880;SDS011;45751;51.380;10.326;2023-08-08T04:12:02;4.55;;;1.10;;
59880;SDS011;45751;51.380;10.326;2023-08-08T04:14:30;6.00;;;1.35;;
59880;SDS011;45751;51.380;10.326;2023-08-08T04:16:56;5.20;;;1.55;;
59880;SDS011;45751;51.380;10.326;2023-08-08T04:19:23;4.82;;;1.20;;
59880;SDS011;45751;51.380;10.326;2023-08-08T04:21:50;5.43;;;1.40;;
59880;SDS011;45751;51.380;10.326;2023-08-08T04:24:17;4.78;;;1.15;;
59880;SDS011;45751;51.380;10.326;2023-08-08T04:26:44;5.93;;;1.40;;
59880;SDS011;45751;51.380;10.326;2023-08-08T04:29:11;5.38;;;1.40;;
59880;SDS011;45751;51.380;10.326;2023-08-08T04:31:38;6.28;;;1.20;;
59880;SDS011;45751;51.380;10.326;2023-08-08T04:34:05;4.03;;;1.02;;
59880;SDS011;45751;51.380;10.326;2023-08-08T04:36:32;4.72;;;1.23;;
59880;SDS011;45751;51.380;10.326;2023-08-08T04:38:59;5.55;;;2.00;;
59880;SDS011;45751;51.380;10.326;2023-08-08T04:41:26;5.45;;;1.40;;
59880;SDS011;45751;51.380;10.326;2023-08-08T04:43:53;4.93;;;1.30;;
59880;SDS011;45751;51.380;10.326;2023-08-08T04:46:20;4.85;;;1.40;;
59880;SDS011;45751;51.380;10.326;2023-08-08T04:48:47;6.20;;;1.35;;
59880;SDS011;45751;51.380;10.326;2023-08-08T04:51:14;5.60;;;1.35;;
59880;SDS011;45751;51.380;10.326;2023-08-08T04:53:40;5.85;;;2.00;;
59880;SDS011;45751;51.380;10.326;2023-08-08T04:56:07;5.82;;;1.50;;
59880;SDS011;45751;51.380;10.326;2023-08-08T04:58:34;5.18;;;1.50;;
59880;SDS011;45751;51.380;10.326;2023-08-08T05:01:01;8.68;;;1.38;;
59880;SDS011;45751;51.380;10.326;2023-08-08T05:03:29;5.28;;;1.27;;
59880;SDS011;45751;51.380;10.326;2023-08-08T05:05:56;5.00;;;1.15;;
59880;SDS011;45751;51.380;10.326;2023-08-08T05:08:25;4.65;;;1.10;;
59880;SDS011;45751;51.380;10.326;2023-08-08T05:10:52;6.43;;;1.35;;
59880;SDS011;45751;51.380;10.326;2023-08-08T05:13:19;5.75;;;1.30;;
59880;SDS011;45751;51.380;10.326;2023-08-08T05:15:46;4.75;;;1.23;;
59880;SDS011;45751;51.380;10.326;2023-08-08T05:18:13;5.00;;;1.58;;
59880;SDS011;45751;51.380;10.326;2023-08-08T05:20:41;5.10;;;1.70;;
59880;SDS011;45751;51.380;10.326;2023-08-08T05:23:08;5.40;;;1.42;;
59880;SDS011;45751;51.380;10.326;2023-08-08T05:25:35;5.05;;;1.35;;
59880;SDS011;45751;51.380;10.326;2023-08-08T05:28:02;5.15;;;1.48;;
59880;SDS011;45751;51.380;10.326;2023-08-08T05:30:29;5.15;;;1.27;;
59880;SDS011;45751;51.380;10.326;2023-08-08T05:32:56;6.55;;;1.52;;
59880;SDS011;45751;51.380;10.326;2023-08-08T05:35:23;6.10;;;1.63;;
59880;SDS011;45751;51.380;10.326;2023-08-08T05:37:50;6.28;;;1.45;;
59880;SDS011;45751;51.380;10.326;2023-08-08T05:40:16;5.53;;;1.80;;
59880;SDS011;45751;51.380;10.326;2023-08-08T05:42:43;6.40;;;1.60;;
59880;SDS011;45751;51.380;10.326;2023-08-08T05:45:10;5.65;;;1.83;;
59880;SDS011;45751;51.380;10.326;2023-08-08T05:47:37;8.82;;;2.63;;
59880;SDS011;45751;51.380;10.326;2023-08-08T05:50:05;6.13;;;2.00;;
59880;SDS011;45751;51.380;10.326;2023-08-08T05:52:33;6.90;;;2.03;;
59880;SDS011;45751;51.380;10.326;2023-08-08T05:55:00;5.95;;;2.00;;
59880;SDS011;45751;51.380;10.326;2023-08-08T05:57:27;6.88;;;1.95;;
59880;SDS011;45751;51.380;10.326;2023-08-08T05:59:54;7.32;;;1.95;;
59880;SDS011;45751;51.380;10.326;2023-08-08T06:02:21;5.55;;;1.88;;
59880;SDS011;45751;51.380;10.326;2023-08-08T06:04:48;7.40;;;2.53;;
59880;SDS011;45751;51.380;10.326;2023-08-08T06:07:15;7.10;;;2.00;;
59880;SDS011;45751;51.380;10.326;2023-08-08T06:09:41;6.40;;;1.75;;
59880;SDS011;45751;51.380;10.326;2023-08-08T06:12:08;6.10;;;1.73;;
59880;SDS011;45751;51.380;10.326;2023-08-08T06:14:35;5.38;;;1.60;;
59880;SDS011;45751;51.380;10.326;2023-08-08T06:17:02;7.32;;;2.53;;
59880;SDS011;45751;51.380;10.326;2023-08-08T06:19:30;7.47;;;2.45;;
59880;SDS011;45751;51.380;10.326;2023-08-08T06:21:57;5.82;;;1.77;;
59880;SDS011;45751;51.380;10.326;2023-08-08T06:24:24;6.72;;;1.92;;
59880;SDS011;45751;51.380;10.326;2023-08-08T06:26:51;6.13;;;2.10;;
59880;SDS011;45751;51.380;10.326;2023-08-08T06:29:18;7.93;;;2.55;;
59880;SDS011;45751;51.380;10.326;2023-08-08T06:31:45;6.28;;;2.00;;
59880;SDS011;45751;51.380;10.326;2023-08-08T06:34:12;6.93;;;2.17;;
59880;SDS011;45751;51.380;10.326;2023-08-08T06:36:39;8.63;;;2.92;;
59880;SDS011;45751;51.380;10.326;2023-08-08T06:39:06;6.30;;;2.15;;
59880;SDS011;45751;51.380;10.326;2023-08-08T06:41:33;6.53;;;2.03;;
59880;SDS011;45751;51.380;10.326;2023-08-08T06:44:00;6.90;;;2.22;;
59880;SDS011;45751;51.380;10.326;2023-08-08T06:46:27;6.93;;;2.38;;
59880;SDS011;45751;51.380;10.326;2023-08-08T06:48:54;6.70;;;2.35;;
59880;SDS011;45751;51.380;10.326;2023-08-08T06:51:25;7.05;;;2.17;;
59880;SDS011;45751;51.380;10.326;2023-08-08T06:53:52;6.05;;;2.03;;
59880;SDS011;45751;51.380;10.326;2023-08-08T06:56:19;8.75;;;2.50;;
59880;SDS011;45751;51.380;10.326;2023-08-08T06:58:46;6.57;;;2.20;;
59880;SDS011;45751;51.380;10.326;2023-08-08T07:01:13;5.97;;;1.90;;
59880;SDS011;45751;51.380;10.326;2023-08-08T07:03:40;5.72;;;1.90;;
59880;SDS011;45751;51.380;10.326;2023-08-08T07:06:07;7.07;;;2.25;;
59880;SDS011;45751;51.380;10.326;2023-08-08T07:08:34;6.18;;;1.90;;
59880;SDS011;45751;51.380;10.326;2023-08-08T07:11:01;5.60;;;1.85;;
59880;SDS011;45751;51.380;10.326;2023-08-08T07:13:28;6.57;;;2.13;;
59880;SDS011;45751;51.380;10.326;2023-08-08T07:15:55;5.72;;;1.73;;
59880;SDS011;45751;51.380;10.326;2023-08-08T07:18:22;5.97;;;1.85;;
59880;SDS011;45751;51.380;10.326;2023-08-08T07:20:49;7.18;;;1.90;;
59880;SDS011;45751;51.380;10.326;2023-08-08T07:23:16;9.02;;;3.22;;
59880;SDS011;45751;51.380;10.326;2023-08-08T07:25:43;8.15;;;2.42;;
59880;SDS011;45751;51.380;10.326;2023-08-08T07:28:17;7.43;;;2.20;;
59880;SDS011;45751;51.380;10.326;2023-08-08T07:30:44;6.72;;;2.20;;
59880;SDS011;45751;51.380;10.326;2023-08-08T07:33:14;6.05;;;1.83;;
59880;SDS011;45751;51.380;10.326;2023-08-08T07:35:41;5.97;;;1.98;;
59880;SDS011;45751;51.380;10.326;2023-08-08T07:38:08;7.90;;;2.40;;
59880;SDS011;45751;51.380;10.326;2023-08-08T07:40:35;7.65;;;2.17;;
59880;SDS011;45751;51.380;10.326;2023-08-08T07:43:02;6.07;;;2.10;;
59880;SDS011;45751;51.380;10.326;2023-08-08T07:45:30;5.50;;;1.63;;
59880;SDS011;45751;51.380;10.326;2023-08-08T07:48:00;11.25;;;1.98;;
59880;SDS011;45751;51.380;10.326;2023-08-08T07:50:27;8.32;;;1.83;;
59880;SDS011;45751;51.380;10.326;2023-08-08T07:52:54;6.22;;;1.90;;
59880;SDS011;45751;51.380;10.326;2023-08-08T07:55:20;7.55;;;2.03;;
59880;SDS011;45751;51.380;10.326;2023-08-08T07:57:48;5.90;;;2.10;;
59880;SDS011;45751;51.380;10.326;2023-08-08T08:00:15;6.85;;;2.20;;
59880;SDS011;45751;51.380;10.326;2023-08-08T08:02:45;6.72;;;2.15;;
59880;SDS011;45751;51.380;10.326;2023-08-08T08:05:12;6.13;;;2.17;;
59880;SDS011;45751;51.380;10.326;2023-08-08T08:07:40;6.82;;;2.05;;
59880;SDS011;45751;51.380;10.326;2023-08-08T08:10:08;7.28;;;2.65;;
59880;SDS011;45751;51.380;10.326;2023-08-08T08:12:36;7.85;;;3.25;;
59880;SDS011;45751;51.380;10.326;2023-08-08T08:15:03;7.05;;;2.30;;
59880;SDS011;45751;51.380;10.326;2023-08-08T08:17:31;8.13;;;2.30;;
59880;SDS011;45751;51.380;10.326;2023-08-08T08:19:58;8.18;;;2.53;;
59880;SDS011;45751;51.380;10.326;2023-08-08T08:22:26;6.88;;;2.35;;
59880;SDS011;45751;51.380;10.326;2023-08-08T08:24:52;6.60;;;2.65;;
59880;SDS011;45751;51.380;10.326;2023-08-08T08:27:20;6.20;;;2.13;;
59880;SDS011;45751;51.380;10.326;2023-08-08T08:29:47;7.38;;;2.15;;
59880;SDS011;45751;51.380;10.326;2023-08-08T08:32:14;6.18;;;2.17;;
59880;SDS011;45751;51.380;10.326;2023-08-08T08:34:41;8.93;;;2.83;;
59880;SDS011;45751;51.380;10.326;2023-08-08T08:37:08;6.53;;;2.65;;
59880;SDS011;45751;51.380;10.326;2023-08-08T08:39:35;10.00;;;2.85;;
59880;SDS011;45751;51.380;10.326;2023-08-08T08:42:02;9.07;;;2.92;;
59880;SDS011;45751;51.380;10.326;2023-08-08T08:44:32;9.55;;;2.55;;
59880;SDS011;45751;51.380;10.326;2023-08-08T08:47:03;7.38;;;2.92;;
59880;SDS011;45751;51.380;10.326;2023-08-08T08:49:38;7.72;;;3.28;;
59880;SDS011;45751;51.380;10.326;2023-08-08T08:52:05;8.90;;;3.03;;
59880;SDS011;45751;51.380;10.326;2023-08-08T08:54:32;6.93;;;2.97;;
59880;SDS011;45751;51.380;10.326;2023-08-08T08:57:05;7.03;;;2.90;;
59880;SDS011;45751;51.380;10.326;2023-08-08T08:59:33;8.48;;;3.17;;
59880;SDS011;45751;51.380;10.326;2023-08-08T09:02:00;9.13;;;3.28;;
59880;SDS011;45751;51.380;10.326;2023-08-08T09:04:28;11.70;;;3.80;;
59880;SDS011;45751;51.380;10.326;2023-08-08T09:06:57;10.55;;;3.38;;
59880;SDS011;45751;51.380;10.326;2023-08-08T09:09:24;10.38;;;3.67;;
59880;SDS011;45751;51.380;10.326;2023-08-08T09:11:52;9.15;;;3.60;;
59880;SDS011;45751;51.380;10.326;2023-08-08T09:14:24;7.65;;;2.88;;
59880;SDS011;45751;51.380;10.326;2023-08-08T09:16:53;7.88;;;3.50;;
59880;SDS011;45751;51.380;10.326;2023-08-08T09:19:21;10.50;;;3.67;;
59880;SDS011;45751;51.380;10.326;2023-08-08T09:21:48;7.85;;;3.75;;
59880;SDS011;45751;51.380;10.326;2023-08-08T09:24:16;9.57;;;4.03;;
59880;SDS011;45751;51.380;10.326;2023-08-08T09:26:44;8.23;;;3.47;;
59880;SDS011;45751;51.380;10.326;2023-08-08T09:29:12;8.50;;;3.22;;
59880;SDS011;45751;51.380;10.326;2023-08-08T09:31:41;8.90;;;3.13;;
59880;SDS011;45751;51.380;10.326;2023-08-08T09:34:08;9.45;;;3.78;;
59880;SDS011;45751;51.380;10.326;2023-08-08T09:36:35;8.90;;;3.72;;
59880;SDS011;45751;51.380;10.326;2023-08-08T09:39:03;11.38;;;3.90;;
59880;SDS011;45751;51.380;10.326;2023-08-08T09:41:31;10.57;;;3.50;;
59880;SDS011;45751;51.380;10.326;2023-08-08T09:43:58;7.93;;;3.90;;
59880;SDS011;45751;51.380;10.326;2023-08-08T09:46:30;8.90;;;3.72;;
59880;SDS011;45751;51.380;10.326;2023-08-08T09:48:58;9.85;;;3.75;;
59880;SDS011;45751;51.380;10.326;2023-08-08T09:51:25;11.30;;;4.03;;
59880;SDS011;45751;51.380;10.326;2023-08-08T09:53:53;7.63;;;3.20;;
59880;SDS011;45751;51.380;10.326;2023-08-08T09:56:23;9.27;;;3.17;;
59880;SDS011;45751;51.380;10.326;2023-08-08T09:58:52;9.88;;;3.10;;
59880;SDS011;45751;51.380;10.326;2023-08-08T10:01:20;8.50;;;3.83;;
59880;SDS011;45751;51.380;10.326;2023-08-08T10:03:48;9.20;;;3.58;;
59880;SDS011;45751;51.380;10.326;2023-08-08T10:06:17;9.43;;;3.80;;
59880;SDS011;45751;51.380;10.326;2023-08-08T10:08:44;10.35;;;3.47;;
59880;SDS011;45751;51.380;10.326;2023-08-08T10:11:12;10.18;;;4.10;;
59880;SDS011;45751;51.380;10.326;2023-08-08T10:13:47;11.18;;;4.10;;
59880;SDS011;45751;51.380;10.326;2023-08-08T10:16:16;9.05;;;3.78;;
59880;SDS011;45751;51.380;10.326;2023-08-08T10:18:45;7.60;;;3.28;;
59880;SDS011;45751;51.380;10.326;2023-08-08T10:21:20;9.63;;;3.38;;
59880;SDS011;45751;51.380;10.326;2023-08-08T10:24:00;8.50;;;3.15;;
59880;SDS011;45751;51.380;10.326;2023-08-08T10:26:30;9.00;;;3.38;;
59880;SDS011;45751;51.380;10.326;2023-08-08T10:28:58;11.27;;;3.85;;
59880;SDS011;45751;51.380;10.326;2023-08-08T10:31:26;11.13;;;4.03;;
59880;SDS011;45751;51.380;10.326;2023-08-08T10:34:02;7.47;;;3.25;;
59880;SDS011;45751;51.380;10.326;2023-08-08T10:36:44;9.00;;;3.53;;
59880;SDS011;45751;51.380;10.326;2023-08-08T10:39:16;6.53;;;2.63;;
59880;SDS011;45751;51.380;10.326;2023-08-08T10:41:53;8.35;;;3.53;;
59880;SDS011;45751;51.380;10.326;2023-08-08T10:44:23;7.05;;;3.00;;
59880;SDS011;45751;51.380;10.326;2023-08-08T10:46:52;8.43;;;3.42;;
59880;SDS011;45751;51.380;10.326;2023-08-08T10:49:37;9.55;;;3.35;;
59880;SDS011;45751;51.380;10.326;2023-08-08T10:52:04;9.38;;;3.55;;
59880;SDS011;45751;51.380;10.326;2023-08-08T10:54:31;8.50;;;3.80;;
59880;SDS011;45751;51.380;10.326;2023-08-08T10:56:59;11.88;;;3.67;;
59880;SDS011;45751;51.380;10.326;2023-08-08T10:59:28;9.85;;;3.78;;
59880;SDS011;45751;51.380;10.326;2023-08-08T11:02:04;11.60;;;3.70;;
59880;SDS011;45751;51.380;10.326;2023-08-08T11:04:31;8.82;;;3.25;;
59880;SDS011;45751;51.380;10.326;2023-08-08T11:06:59;8.63;;;3.42;;
59880;SDS011;45751;51.380;10.326;2023-08-08T11:09:26;12.68;;;3.60;;
59880;SDS011;45751;51.380;10.326;2023-08-08T11:11:53;8.35;;;3.55;;
59880;SDS011;45751;51.380;10.326;2023-08-08T11:14:21;11.27;;;3.78;;
59880;SDS011;45751;51.380;10.326;2023-08-08T11:16:50;10.13;;;4.85;;
59880;SDS011;45751;51.380;10.326;2023-08-08T11:19:18;10.77;;;3.70;;
59880;SDS011;45751;51.380;10.326;2023-08-08T11:21:49;10.25;;;3.33;;
59880;SDS011;45751;51.380;10.326;2023-08-08T11:24:19;9.88;;;3.65;;
59880;SDS011;45751;51.380;10.326;2023-08-08T11:26:46;9.23;;;3.03;;
59880;SDS011;45751;51.380;10.326;2023-08-08T11:29:14;7.30;;;2.80;;
59880;SDS011;45751;51.380;10.326;2023-08-08T11:31:41;7.88;;;2.47;;
59880;SDS011;45751;51.380;10.326;2023-08-08T11:34:08;7.93;;;3.30;;
59880;SDS011;45751;51.380;10.326;2023-08-08T11:36:36;9.57;;;2.65;;
59880;SDS011;45751;51.380;10.326;2023-08-08T11:39:04;8.57;;;2.72;;
59880;SDS011;45751;51.380;10.326;2023-08-08T11:41:37;9.02;;;2.83;;
59880;SDS011;45751;51.380;10.326;2023-08-08T11:44:05;8.98;;;2.67;;
59880;SDS011;45751;51.380;10.326;2023-08-08T11:46:35;7.13;;;2.85;;
59880;SDS011;45751;51.380;10.326;2023-08-08T11:49:14;7.25;;;2.60;;
59880;SDS011;45751;51.380;10.326;2023-08-08T11:51:42;8.05;;;3.10;;
59880;SDS011;45751;51.380;10.326;2023-08-08T11:54:10;7.50;;;2.88;;
59880;SDS011;45751;51.380;10.326;2023-08-08T11:56:37;7.25;;;2.55;;
59880;SDS011;45751;51.380;10.326;2023-08-08T11:59:04;7.50;;;2.88;;
59880;SDS011;45751;51.380;10.326;2023-08-08T12:01:32;11.13;;;2.80;;
59880;SDS011;45751;51.380;10.326;2023-08-08T12:04:07;9.60;;;4.13;;
59880;SDS011;45751;51.380;10.326;2023-08-08T12:06:36;8.23;;;3.22;;
59880;SDS011;45751;51.380;10.326;2023-08-08T12:09:06;8.18;;;2.83;;
59880;SDS011;45751;51.380;10.326;2023-08-08T12:11:36;8.95;;;2.83;;
59880;SDS011;45751;51.380;10.326;2023-08-08T12:14:03;7.43;;;2.90;;
59880;SDS011;45751;51.380;10.326;2023-08-08T12:16:30;9.57;;;2.70;;
59880;SDS011;45751;51.380;10.326;2023-08-08T12:19:04;7.18;;;2.45;;
59880;SDS011;45751;51.380;10.326;2023-08-08T12:21:33;9.57;;;2.88;;
59880;SDS011;45751;51.380;10.326;2023-08-08T12:24:01;9.55;;;2.53;;
59880;SDS011;45751;51.380;10.326;2023-08-08T12:26:29;10.65;;;3.22;;
59880;SDS011;45751;51.380;10.326;2023-08-08T12:28:56;8.40;;;2.55;;
59880;SDS011;45751;51.380;10.326;2023-08-08T12:31:22;7.65;;;2.42;;
59880;SDS011;45751;51.380;10.326;2023-08-08T12:33:50;7.38;;;2.92;;
59880;SDS011;45751;51.380;10.326;2023-08-08T12:36:19;6.70;;;2.40;;
59880;SDS011;45751;51.380;10.326;2023-08-08T12:38:46;7.15;;;2.55;;
59880;SDS011;45751;51.380;10.326;2023-08-08T12:41:13;7.18;;;2.75;;
59880;SDS011;45751;51.380;10.326;2023-08-08T12:43:40;8.68;;;3.05;;
59880;SDS011;45751;51.380;10.326;2023-08-08T12:46:07;9.00;;;2.72;;
59880;SDS011;45751;51.380;10.326;2023-08-08T12:48:34;8.35;;;2.65;;
59880;SDS011;45751;51.380;10.326;2023-08-08T12:51:01;7.18;;;2.42;;
59880;SDS011;45751;51.380;10.326;2023-08-08T12:53:28;8.15;;;2.60;;
59880;SDS011;45751;51.380;10.326;2023-08-08T12:55:55;11.45;;;3.13;;
59880;SDS011;45751;51.380;10.326;2023-08-08T12:58:22;6.68;;;2.72;;
59880;SDS011;45751;51.380;10.326;2023-08-08T13:00:49;8.82;;;2.40;;
59880;SDS011;45751;51.380;10.326;2023-08-08T13:03:16;8.48;;;2.67;;
59880;SDS011;45751;51.380;10.326;2023-08-08T13:05:44;6.90;;;2.35;;
59880;SDS011;45751;51.380;10.326;2023-08-08T13:08:10;7.43;;;2.35;;
59880;SDS011;45751;51.380;10.326;2023-08-08T13:10:40;5.97;;;1.98;;
59880;SDS011;45751;51.380;10.326;2023-08-08T13:13:07;7.75;;;2.70;;
59880;SDS011;45751;51.380;10.326;2023-08-08T13:15:34;8.30;;;2.00;;
59880;SDS011;45751;51.380;10.326;2023-08-08T13:18:01;7.82;;;1.95;;
59880;SDS011;45751;51.380;10.326;2023-08-08T13:20:28;7.93;;;1.92;;
59880;SDS011;45751;51.380;10.326;2023-08-08T13:22:55;6.82;;;1.80;;
59880;SDS011;45751;51.380;10.326;2023-08-08T13:25:23;6.53;;;1.83;;
59880;SDS011;45751;51.380;10.326;2023-08-08T13:27:50;5.78;;;1.85;;
59880;SDS011;45751;51.380;10.326;2023-08-08T13:30:17;6.47;;;1.65;;
59880;SDS011;45751;51.380;10.326;2023-08-08T13:32:44;6.30;;;1.88;;
59880;SDS011;45751;51.380;10.326;2023-08-08T13:35:12;6.13;;;2.05;;
59880;SDS011;45751;51.380;10.326;2023-08-08T13:37:38;7.90;;;2.17;;
59880;SDS011;45751;51.380;10.326;2023-08-08T13:40:05;8.48;;;2.28;;
59880;SDS011;45751;51.380;10.326;2023-08-08T13:42:33;8.60;;;2.08;;
59880;SDS011;45751;51.380;10.326;2023-08-08T13:45:00;6.88;;;1.95;;
59880;SDS011;45751;51.380;10.326;2023-08-08T13:47:27;6.43;;;1.70;;
59880;SDS011;45751;51.380;10.326;2023-08-08T13:49:54;6.60;;;2.05;;
59880;SDS011;45751;51.380;10.326;2023-08-08T13:52:21;6.93;;;1.83;;
59880;SDS011;45751;51.380;10.326;2023-08-08T13:54:48;6.13;;;2.20;;
59880;SDS011;45751;51.380;10.326;2023-08-08T13:57:15;5.72;;;1.98;;
59880;SDS011;45751;51.380;10.326;2023-08-08T13:59:42;6.75;;;2.25;;
59880;SDS011;45751;51.380;10.326;2023-08-08T14:02:09;6.72;;;2.28;;
59880;SDS011;45751;51.380;10.326;2023-08-08T14:04:36;8.13;;;2.55;;
59880;SDS011;45751;51.380;10.326;2023-08-08T14:07:03;7.88;;;2.60;;
59880;SDS011;45751;51.380;10.326;2023-08-08T14:09:30;6.63;;;2.60;;
59880;SDS011;45751;51.380;10.326;2023-08-08T14:11:57;7.85;;;2.63;;
59880;SDS011;45751;51.380;10.326;2023-08-08T14:14:26;7.40;;;2.40;;
59880;SDS011;45751;51.380;10.326;2023-08-08T14:16:53;7.93;;;2.35;;
59880;SDS011;45751;51.380;10.326;2023-08-08T14:19:21;8.40;;;2.45;;
59880;SDS011;45751;51.380;10.326;2023-08-08T14:21:48;10.80;;;2.33;;
59880;SDS011;45751;51.380;10.326;2023-08-08T14:24:16;7.43;;;2.83;;
59880;SDS011;45751;51.380;10.326;2023-08-08T14:26:43;7.28;;;3.03;;
59880;SDS011;45751;51.380;10.326;2023-08-08T14:29:11;9.20;;;2.88;;
59880;SDS011;45751;51.380;10.326;2023-08-08T14:31:38;6.50;;;2.35;;
59880;SDS011;45751;51.380;10.326;2023-08-08T14:34:28;9.52;;;3.25;;
59880;SDS011;45751;51.380;10.326;2023-08-08T14:36:56;7.22;;;2.58;;
59880;SDS011;45751;51.380;10.326;2023-08-08T14:39:24;8.63;;;2.95;;